createdAt,value
2018-09-22T00:01:09.503Z,12.70
2018-09-22T00:06:12.842Z,12.80
2018-09-22T00:11:16.126Z,12.90
2018-09-22T00:16:19.370Z,13.00
2018-09-22T00:21:22.560Z,12.80
2018-09-22T00:26:25.779Z,12.80
2018-09-22T00:31:28.993Z,12.70
2018-09-22T00:36:32.255Z,12.70
2018-09-22T00:41:35.510Z,12.50
2018-09-22T00:46:38.690Z,12.30
2018-09-22T00:51:42.162Z,12.20
2018-09-22T00:56:45.349Z,12.10
2018-09-22T01:01:48.569Z,11.90
2018-09-22T01:06:51.807Z,11.90
2018-09-22T01:11:56.022Z,11.80
2018-09-22T01:16:59.224Z,11.60
2018-09-22T01:22:02.423Z,11.60
2018-09-22T01:27:05.730Z,11.60
2018-09-22T01:32:08.941Z,11.60
2018-09-22T01:37:12.269Z,11.70
2018-09-22T01:42:15.465Z,11.80
2018-09-22T01:47:18.673Z,11.80
2018-09-22T01:52:21.996Z,11.90
2018-09-22T01:57:25.125Z,11.90
2018-09-22T02:02:28.386Z,12.00
2018-09-22T02:07:31.605Z,11.90
2018-09-22T02:12:34.797Z,11.80
2018-09-22T02:17:37.980Z,11.80
2018-09-22T02:22:41.586Z,11.90
2018-09-22T02:27:44.894Z,11.90
2018-09-22T02:32:48.118Z,11.80
2018-09-22T02:37:51.388Z,11.90
2018-09-22T02:42:54.578Z,11.80
2018-09-22T02:47:57.818Z,11.70
2018-09-22T02:53:01.095Z,11.80
2018-09-22T02:58:04.314Z,11.80
2018-09-22T03:03:07.513Z,11.90
2018-09-22T03:08:10.776Z,11.90
2018-09-22T03:13:14.014Z,11.90
2018-09-22T03:18:17.237Z,11.90
2018-09-22T03:23:20.737Z,11.80
2018-09-22T03:28:23.986Z,11.80
2018-09-22T03:33:27.194Z,11.80
2018-09-22T03:38:30.415Z,11.70
2018-09-22T03:43:33.613Z,11.70
2018-09-22T03:48:39.906Z,11.60
2018-09-22T03:53:43.260Z,11.60
2018-09-22T03:58:47.814Z,11.60
2018-09-22T04:03:51.033Z,11.60
2018-09-22T04:08:54.730Z,11.50
2018-09-22T04:13:57.931Z,11.50
2018-09-22T04:19:14.912Z,11.50
2018-09-22T04:24:19.100Z,11.60
2018-09-22T04:29:22.314Z,11.60
2018-09-22T04:34:25.629Z,11.60
2018-09-22T04:39:28.833Z,11.70
2018-09-22T04:44:32.425Z,11.60
2018-09-22T04:49:35.638Z,11.70
2018-09-22T04:54:38.882Z,11.70
2018-09-22T04:59:47.048Z,11.60
2018-09-22T05:04:55.390Z,11.70
2018-09-22T05:10:01.218Z,11.70
2018-09-22T05:15:05.955Z,11.60
2018-09-22T05:20:09.266Z,11.60
2018-09-22T05:25:13.187Z,11.70
2018-09-22T05:30:18.339Z,11.70
2018-09-22T05:35:26.008Z,11.70
2018-09-22T05:40:29.234Z,11.70
2018-09-22T05:45:33.161Z,11.70
2018-09-22T05:50:36.514Z,11.70
2018-09-22T05:55:39.744Z,11.70
2018-09-22T06:00:44.004Z,11.80
2018-09-22T06:05:50.283Z,11.80
2018-09-22T06:10:53.550Z,11.90
2018-09-22T06:16:00.636Z,11.90
2018-09-22T06:21:14.955Z,11.90
2018-09-22T06:26:18.910Z,11.90
2018-09-22T06:31:28.068Z,12.00
2018-09-22T06:36:32.426Z,12.00
2018-09-22T06:41:36.321Z,12.00
2018-09-22T06:46:40.083Z,12.00
2018-09-22T06:51:44.902Z,12.10
2018-09-22T06:56:51.233Z,12.20
2018-09-22T07:01:54.473Z,12.30
2018-09-22T07:06:57.787Z,12.40
2018-09-22T07:12:01.088Z,12.40
2018-09-22T07:17:04.684Z,12.50
2018-09-22T07:23:13.770Z,12.50
2018-09-22T07:28:18.304Z,12.60
2018-09-22T07:33:21.538Z,12.70
2018-09-22T07:38:24.797Z,12.90
2018-09-22T07:43:31.241Z,13.00
2018-09-22T07:48:34.570Z,12.90
2018-09-22T07:53:38.146Z,12.90
2018-09-22T07:58:41.466Z,13.00
2018-09-22T08:03:48.781Z,13.20
2018-09-22T08:08:55.923Z,13.30
2018-09-22T08:14:00.259Z,13.30
2018-09-22T08:19:03.652Z,13.30
2018-09-22T08:24:07.072Z,13.40
2018-09-22T08:29:10.368Z,13.40
2018-09-22T08:34:13.995Z,13.60
2018-09-22T08:39:17.278Z,13.80
2018-09-22T08:44:21.486Z,14.00
2018-09-22T08:49:24.828Z,14.10
2018-09-22T08:54:28.521Z,14.20
2018-09-22T08:59:31.821Z,14.40
2018-09-22T09:04:35.682Z,14.70
2018-09-22T09:09:38.972Z,14.80
2018-09-22T09:14:42.326Z,15.10
2018-09-22T09:19:51.526Z,14.90
2018-09-22T09:24:54.782Z,14.90
2018-09-22T09:30:00.018Z,15.10
2018-09-22T09:35:03.606Z,14.90
2018-09-22T09:40:08.135Z,14.90
2018-09-22T09:45:13.188Z,15.10
2018-09-22T09:50:16.567Z,15.40
2018-09-22T09:55:19.923Z,15.40
2018-09-22T10:00:34.370Z,15.60
2018-09-22T10:05:44.143Z,15.50
2018-09-22T10:10:49.832Z,15.40
2018-09-22T10:15:54.026Z,15.40
2018-09-22T10:21:01.806Z,15.60
2018-09-22T10:26:05.188Z,15.80
2018-09-22T10:31:08.534Z,15.70
2018-09-22T10:36:11.869Z,15.80
2018-09-22T10:41:16.264Z,16.10
2018-09-22T10:46:31.390Z,16.60
2018-09-22T10:51:41.648Z,16.40
2018-09-22T10:56:48.577Z,16.30
2018-09-22T11:01:52.263Z,16.40
2018-09-22T11:06:57.753Z,16.60
2018-09-22T11:12:02.071Z,16.70
2018-09-22T11:17:22.257Z,16.60
2018-09-22T11:22:57.060Z,16.50
2018-09-22T11:28:13.874Z,16.60
2018-09-22T11:33:26.442Z,16.80
2018-09-22T11:38:43.078Z,16.90
2018-09-22T11:49:22.459Z,16.70
2018-09-22T11:54:29.131Z,16.60
2018-09-22T11:59:35.081Z,16.50
2018-09-22T12:04:41.480Z,16.40
2018-09-22T12:09:45.073Z,16.50
2018-09-22T12:14:58.880Z,16.60
2018-09-22T12:20:04.678Z,16.70
2018-09-22T12:25:10.914Z,16.70
2018-09-22T12:30:15.662Z,16.80
2018-09-22T12:35:19.046Z,16.80
2018-09-22T12:40:28.993Z,16.70
2018-09-22T12:50:43.731Z,16.80
2018-09-22T12:55:47.495Z,16.90
2018-09-22T13:00:53.074Z,16.80
2018-09-22T13:06:00.451Z,16.80
2018-09-22T13:16:27.951Z,16.60
2018-09-22T13:21:32.479Z,16.60
2018-09-22T13:26:37.197Z,16.60
2018-09-22T13:31:40.979Z,16.50
2018-09-22T13:36:44.454Z,16.50
2018-09-22T13:41:53.012Z,16.40
2018-09-22T13:46:56.719Z,16.50
2018-09-22T13:52:00.767Z,16.40
2018-09-22T13:57:04.183Z,16.30
2018-09-22T14:02:08.246Z,16.10
2018-09-22T14:07:13.266Z,16.10
2018-09-22T14:12:18.926Z,16.00
2018-09-22T14:17:23.193Z,15.90
2018-09-22T14:22:26.882Z,15.80
2018-09-22T14:27:33.879Z,15.80
2018-09-22T14:32:42.885Z,15.80
2018-09-22T14:37:47.659Z,15.80
2018-09-22T14:42:53.088Z,15.80
2018-09-22T14:48:02.313Z,15.20
2018-09-22T14:53:05.734Z,14.60
2018-09-22T14:58:09.104Z,14.40
2018-09-22T15:03:16.048Z,14.20
2018-09-22T15:08:37.391Z,14.10
2018-09-22T15:13:44.987Z,14.00
2018-09-22T15:18:53.320Z,13.80
2018-09-22T15:23:56.892Z,13.70
2018-09-22T15:29:02.760Z,13.60
2018-09-22T15:34:06.841Z,13.50
2018-09-22T15:39:10.770Z,13.40
2018-09-22T15:44:14.127Z,13.40
2018-09-22T15:49:19.671Z,13.30
2018-09-22T15:54:24.953Z,13.30
2018-09-22T15:59:36.524Z,13.20
2018-09-22T16:10:13.592Z,13.00
2018-09-22T16:15:16.898Z,12.90
2018-09-22T16:20:20.219Z,12.90
2018-09-22T16:25:25.638Z,12.90
2018-09-22T16:30:30.942Z,12.70
2018-09-22T16:35:34.358Z,12.70
2018-09-22T16:40:40.903Z,12.70
2018-09-22T16:45:44.174Z,12.60
2018-09-22T16:50:47.416Z,12.60
2018-09-22T16:55:51.734Z,12.60
2018-09-22T17:00:55.856Z,12.50
2018-09-22T17:06:03.320Z,12.50
2018-09-22T17:11:06.570Z,12.40
2018-09-22T17:16:09.989Z,12.40
2018-09-22T17:21:13.314Z,12.40
2018-09-22T17:26:16.750Z,12.40
2018-09-22T17:31:20.082Z,12.30
2018-09-22T17:36:23.537Z,12.30
2018-09-22T17:41:26.831Z,12.20
2018-09-22T17:46:30.300Z,12.10
2018-09-22T17:51:36.430Z,12.00
2018-09-22T17:56:39.867Z,11.90
2018-09-22T18:01:50.083Z,11.90
2018-09-22T18:06:57.012Z,11.90
2018-09-22T18:12:04.013Z,11.80
2018-09-22T18:17:13.782Z,11.80
2018-09-22T18:22:20.417Z,11.70
2018-09-22T18:27:24.890Z,11.70
2018-09-22T18:32:29.242Z,11.60
2018-09-22T18:37:32.554Z,11.60
2018-09-22T18:42:35.891Z,11.60
2018-09-22T18:47:42.451Z,11.60
2018-09-22T18:52:46.363Z,11.60
2018-09-22T18:57:50.024Z,11.60
2018-09-22T19:02:56.737Z,11.50
2018-09-22T19:08:00.476Z,11.50
2018-09-22T19:13:06.980Z,11.30
2018-09-22T19:18:16.594Z,11.30
2018-09-22T19:23:23.598Z,11.30
2018-09-22T19:28:31.150Z,11.40
2018-09-22T19:33:40.939Z,11.40
2018-09-22T19:38:50.443Z,11.40
2018-09-22T19:44:09.936Z,11.40
2018-09-22T19:49:16.949Z,11.40
2018-09-22T19:54:21.238Z,11.40
2018-09-22T19:59:24.449Z,11.30
2018-09-22T20:04:27.813Z,11.40
2018-09-22T20:09:31.027Z,11.50
2018-09-22T20:14:35.281Z,11.50
2018-09-22T20:19:38.527Z,11.40
2018-09-22T20:24:41.879Z,11.40
2018-09-22T20:29:45.088Z,11.30
2018-09-22T20:34:48.329Z,11.30
2018-09-22T20:39:51.618Z,11.40
2018-09-22T20:44:54.828Z,11.40
2018-09-22T20:49:58.050Z,11.40
2018-09-22T20:55:01.250Z,11.40
2018-09-22T21:00:06.559Z,11.40
2018-09-22T21:05:09.763Z,11.40
2018-09-22T21:10:13.966Z,11.40
2018-09-22T21:15:17.140Z,11.40
2018-09-22T21:20:20.370Z,11.40
2018-09-22T21:25:23.562Z,11.40
2018-09-22T21:30:26.743Z,11.30
2018-09-22T21:35:29.936Z,11.40
2018-09-22T21:40:33.225Z,11.30
2018-09-22T21:45:36.387Z,11.40
2018-09-22T21:50:40.590Z,11.40
2018-09-22T21:55:43.785Z,11.30
2018-09-22T22:00:52.065Z,11.40
2018-09-22T22:05:55.274Z,11.40
2018-09-22T22:10:58.481Z,11.30
2018-09-22T22:16:01.662Z,11.30
2018-09-22T22:21:04.849Z,11.30
2018-09-22T22:26:08.062Z,11.30
2018-09-22T22:31:11.266Z,11.30
2018-09-22T22:36:14.494Z,11.30
2018-09-22T22:41:17.802Z,11.30
2018-09-22T22:46:21.107Z,11.30
2018-09-22T22:51:24.309Z,11.40
2018-09-22T22:56:27.526Z,11.30
2018-09-22T23:01:30.729Z,11.40
2018-09-22T23:06:33.964Z,11.40
2018-09-22T23:11:37.234Z,11.30
2018-09-22T23:16:40.461Z,11.30
2018-09-22T23:21:43.687Z,11.30
2018-09-22T23:26:46.911Z,11.30
2018-09-22T23:31:50.146Z,11.30
2018-09-22T23:36:53.344Z,11.20
2018-09-22T23:41:56.546Z,11.20
2018-09-22T23:46:59.755Z,11.30
2018-09-22T23:52:02.995Z,11.30
2018-09-22T23:57:06.374Z,11.20
